createdAt,value
2018-06-17T00:01:14.981Z,98.21
2018-06-17T00:03:42.045Z,97.52
2018-06-17T00:06:09.151Z,97.62
2018-06-17T00:08:36.385Z,97.55
2018-06-17T00:11:05.754Z,98.13
2018-06-17T00:13:32.849Z,98.51
2018-06-17T00:15:59.867Z,99.71
2018-06-17T00:18:26.918Z,100.00
2018-06-17T00:20:54.039Z,100.00
2018-06-17T00:23:21.152Z,100.00
2018-06-17T00:25:55.114Z,100.00
2018-06-17T00:28:22.217Z,100.00
2018-06-17T00:30:49.267Z,100.00
2018-06-17T00:33:16.289Z,100.00
2018-06-17T00:35:43.469Z,100.00
2018-06-17T00:38:10.610Z,100.00
2018-06-17T00:40:37.614Z,100.00
2018-06-17T00:43:04.666Z,100.00
2018-06-17T00:45:31.704Z,100.00
2018-06-17T00:47:58.712Z,99.95
2018-06-17T00:50:25.846Z,100.00
2018-06-17T00:52:52.916Z,99.60
2018-06-17T00:55:19.932Z,99.31
2018-06-17T00:57:49.623Z,98.65
2018-06-17T01:00:16.930Z,99.89
2018-06-17T01:02:44.385Z,98.17
2018-06-17T01:05:11.629Z,98.47
2018-06-17T01:07:38.638Z,99.96
2018-06-17T01:10:05.682Z,100.00
2018-06-17T01:12:32.777Z,100.00
2018-06-17T01:15:00.043Z,100.00
2018-06-17T01:17:27.057Z,100.00
2018-06-17T01:19:54.070Z,100.00
2018-06-17T01:22:21.127Z,100.00
2018-06-17T01:24:48.141Z,100.00
2018-06-17T01:27:15.161Z,100.00
2018-06-17T01:29:42.201Z,100.00
2018-06-17T01:32:09.233Z,100.00
2018-06-17T01:34:36.332Z,100.00
2018-06-17T01:37:03.384Z,100.00
2018-06-17T01:39:30.483Z,100.00
2018-06-17T01:41:57.533Z,100.00
2018-06-17T01:44:24.558Z,100.00
2018-06-17T01:46:51.666Z,100.00
2018-06-17T01:49:18.681Z,100.00
2018-06-17T01:51:45.690Z,100.00
2018-06-17T01:54:12.811Z,100.00
2018-06-17T01:56:39.853Z,100.00
2018-06-17T01:59:07.276Z,100.00
2018-06-17T02:01:34.299Z,100.00
2018-06-17T02:04:07.090Z,100.00
2018-06-17T02:06:39.812Z,100.00
2018-06-17T02:09:12.573Z,100.00
2018-06-17T02:11:46.842Z,100.00
2018-06-17T02:14:19.527Z,100.00
2018-06-17T02:16:46.618Z,100.00
2018-06-17T02:19:13.630Z,100.00
2018-06-17T02:21:40.665Z,100.00
2018-06-17T02:24:08.493Z,100.00
2018-06-17T02:26:35.505Z,100.00
2018-06-17T02:29:02.545Z,100.00
2018-06-17T02:31:29.561Z,100.00
2018-06-17T02:33:56.572Z,100.00
2018-06-17T02:36:23.569Z,100.00
2018-06-17T02:38:50.687Z,100.00
2018-06-17T02:41:17.733Z,100.00
2018-06-17T02:43:44.768Z,100.00
2018-06-17T02:46:17.467Z,100.00
2018-06-17T02:48:50.155Z,100.00
2018-06-17T02:51:22.842Z,100.00
2018-06-17T02:53:55.582Z,100.00
2018-06-17T02:56:22.589Z,100.00
2018-06-17T02:58:49.629Z,100.00
2018-06-17T03:01:16.685Z,100.00
2018-06-17T03:03:43.807Z,100.00
2018-06-17T03:06:10.805Z,100.00
2018-06-17T03:08:37.953Z,100.00
2018-06-17T03:11:05.074Z,100.00
2018-06-17T03:13:32.119Z,98.95
2018-06-17T03:15:59.129Z,97.24
2018-06-17T03:18:26.133Z,98.48
2018-06-17T03:20:53.190Z,98.96
2018-06-17T03:23:20.281Z,99.55
2018-06-17T03:25:52.941Z,99.63
2018-06-17T03:28:25.679Z,97.70
2018-06-17T03:30:58.382Z,98.08
2018-06-17T03:33:30.987Z,97.78
2018-06-17T03:36:03.934Z,98.79
2018-06-17T03:38:30.984Z,98.68
2018-06-17T03:40:57.989Z,99.04
2018-06-17T03:43:24.981Z,99.04
2018-06-17T03:45:52.005Z,99.65
2018-06-17T03:48:19.030Z,98.95
2018-06-17T03:50:46.349Z,98.84
2018-06-17T03:53:13.363Z,99.89
2018-06-17T03:55:40.382Z,99.11
2018-06-17T03:58:07.413Z,99.87
2018-06-17T04:00:34.453Z,100.00
2018-06-17T04:03:01.479Z,100.00
2018-06-17T04:05:30.484Z,100.00
2018-06-17T04:07:59.546Z,100.00
2018-06-17T04:10:27.422Z,98.45
2018-06-17T04:12:54.792Z,98.80
2018-06-17T04:15:21.915Z,97.85
2018-06-17T04:17:48.928Z,99.64
2018-06-17T04:20:15.961Z,98.10
2018-06-17T04:22:42.980Z,97.49
2018-06-17T04:25:10.001Z,97.81
2018-06-17T04:27:37.177Z,97.98
2018-06-17T04:30:04.286Z,97.82
2018-06-17T04:32:31.313Z,97.81
2018-06-17T04:34:58.402Z,96.11
2018-06-17T04:37:25.422Z,97.93
2018-06-17T04:39:52.442Z,98.56
2018-06-17T04:42:19.767Z,98.84
2018-06-17T04:44:47.199Z,98.17
2018-06-17T04:47:14.205Z,97.77
2018-06-17T04:49:41.268Z,98.08
2018-06-17T04:52:08.881Z,98.16
2018-06-17T04:54:35.886Z,98.45
2018-06-17T04:57:02.926Z,98.46
2018-06-17T04:59:29.933Z,97.95
2018-06-17T05:01:56.966Z,97.17
2018-06-17T05:04:24.068Z,96.67
2018-06-17T05:06:51.253Z,97.17
2018-06-17T05:09:18.258Z,96.57
2018-06-17T05:11:45.269Z,96.47
2018-06-17T05:14:12.285Z,94.86
2018-06-17T05:16:39.297Z,94.82
2018-06-17T05:19:06.310Z,95.55
2018-06-17T05:21:33.364Z,95.71
2018-06-17T05:24:00.379Z,94.74
2018-06-17T05:26:27.618Z,94.84
2018-06-17T05:28:54.793Z,92.60
2018-06-17T05:31:21.903Z,91.28
2018-06-17T05:33:48.985Z,93.59
2018-06-17T05:36:16.090Z,92.68
2018-06-17T05:38:43.274Z,90.64
2018-06-17T05:41:10.485Z,93.02
2018-06-17T05:43:37.589Z,92.16
2018-06-17T05:46:04.654Z,91.30
2018-06-17T05:48:31.688Z,90.73
2018-06-17T05:50:58.810Z,89.75
2018-06-17T05:53:26.473Z,90.52
2018-06-17T05:55:53.561Z,88.19
2018-06-17T05:58:20.642Z,87.59
2018-06-17T06:00:47.741Z,87.53
2018-06-17T06:03:14.825Z,87.45
2018-06-17T06:05:41.889Z,87.11
2018-06-17T06:08:08.911Z,87.43
2018-06-17T06:10:35.957Z,87.72
2018-06-17T06:13:02.989Z,90.65
2018-06-17T06:15:30.027Z,88.89
2018-06-17T06:17:57.057Z,86.42
2018-06-17T06:20:24.077Z,84.67
2018-06-17T06:22:51.211Z,84.59
2018-06-17T06:25:18.326Z,85.88
2018-06-17T06:27:45.426Z,81.67
2018-06-17T06:30:12.533Z,84.19
2018-06-17T06:32:39.676Z,83.96
2018-06-17T06:35:06.678Z,81.45
2018-06-17T06:37:34.053Z,82.67
2018-06-17T06:40:01.082Z,82.74
2018-06-17T06:42:28.246Z,83.36
2018-06-17T06:44:55.406Z,79.79
2018-06-17T06:47:22.437Z,80.52
2018-06-17T06:49:49.557Z,82.30
2018-06-17T06:52:16.737Z,81.55
2018-06-17T06:54:43.787Z,80.56
2018-06-17T06:57:10.836Z,80.32
2018-06-17T06:59:37.870Z,77.97
2018-06-17T07:02:16.884Z,81.76
2018-06-17T07:04:55.638Z,79.31
2018-06-17T07:07:34.261Z,78.03
2018-06-17T07:10:12.981Z,77.46
2018-06-17T07:12:40.049Z,78.09
2018-06-17T07:15:07.342Z,77.37
2018-06-17T07:17:46.193Z,78.04
2018-06-17T07:20:13.197Z,76.38
2018-06-17T07:22:42.938Z,77.68
2018-06-17T07:25:18.108Z,76.47
2018-06-17T07:29:00.990Z,75.81
2018-06-17T07:31:28.050Z,77.46
2018-06-17T07:33:55.113Z,76.10
2018-06-17T07:36:22.186Z,74.37
2018-06-17T07:38:49.262Z,75.03
2018-06-17T07:41:16.302Z,75.35
2018-06-17T07:43:43.396Z,74.82
2018-06-17T07:46:10.434Z,74.91
2018-06-17T07:49:49.909Z,75.62
2018-06-17T07:52:29.647Z,74.42
2018-06-17T07:54:57.013Z,75.11
2018-06-17T07:57:25.379Z,75.57
2018-06-17T07:59:52.420Z,75.43
2018-06-17T08:02:19.493Z,75.80
2018-06-17T08:04:46.594Z,77.82
2018-06-17T08:07:13.606Z,75.88
2018-06-17T08:09:40.685Z,73.36
2018-06-17T08:12:08.602Z,71.17
2018-06-17T08:14:35.645Z,72.83
2018-06-17T08:17:02.719Z,70.30
2018-06-17T08:19:30.127Z,70.43
2018-06-17T08:21:57.876Z,71.58
2018-06-17T08:24:25.280Z,72.33
2018-06-17T08:26:52.358Z,71.97
2018-06-17T08:29:19.364Z,71.93
2018-06-17T08:31:46.389Z,69.97
2018-06-17T08:34:13.896Z,70.56
2018-06-17T08:36:41.329Z,71.01
2018-06-17T08:39:11.317Z,71.06
2018-06-17T08:41:38.570Z,70.56
2018-06-17T08:44:05.693Z,70.31
2018-06-17T08:46:32.814Z,70.77
2018-06-17T08:48:59.834Z,70.55
2018-06-17T08:51:26.861Z,69.15
2018-06-17T08:53:54.362Z,68.83
2018-06-17T08:56:21.385Z,69.43
2018-06-17T08:58:48.416Z,68.27
2018-06-17T09:01:15.466Z,67.66
2018-06-17T09:03:42.483Z,68.15
2018-06-17T09:06:09.534Z,68.34
2018-06-17T09:08:36.541Z,65.82
2018-06-17T09:11:03.657Z,66.45
2018-06-17T09:13:30.677Z,66.48
2018-06-17T09:15:57.773Z,67.48
2018-06-17T09:18:24.840Z,67.45
2018-06-17T09:20:51.914Z,67.33
2018-06-17T09:23:19.266Z,66.93
2018-06-17T09:25:46.384Z,65.08
2018-06-17T09:28:13.438Z,65.17
2018-06-17T09:30:40.533Z,66.12
2018-06-17T09:33:07.560Z,65.90
2018-06-17T09:35:34.577Z,65.65
2018-06-17T09:38:01.780Z,66.07
2018-06-17T09:40:28.767Z,65.46
2018-06-17T09:42:55.778Z,66.12
2018-06-17T09:45:22.840Z,66.86
2018-06-17T09:47:49.861Z,65.65
2018-06-17T09:50:16.874Z,66.22
2018-06-17T09:52:43.926Z,65.66
2018-06-17T09:55:10.949Z,65.79
2018-06-17T09:57:37.959Z,65.24
2018-06-17T10:00:05.001Z,66.28
2018-06-17T10:02:32.070Z,65.68
2018-06-17T10:04:59.097Z,64.98
2018-06-17T10:07:26.127Z,62.95
2018-06-17T10:10:39.241Z,63.84
2018-06-17T10:13:06.270Z,64.88
2018-06-17T10:15:33.374Z,64.55
2018-06-17T10:18:00.414Z,64.29
2018-06-17T10:20:27.486Z,65.42
2018-06-17T10:22:54.558Z,64.05
2018-06-17T10:25:21.653Z,63.05
2018-06-17T10:27:48.854Z,62.69
2018-06-17T10:30:15.857Z,63.19
2018-06-17T10:32:42.921Z,62.09
2018-06-17T10:35:09.945Z,61.81
2018-06-17T10:37:36.949Z,60.82
2018-06-17T10:40:04.001Z,61.00
2018-06-17T10:42:31.087Z,59.47
2018-06-17T10:44:58.109Z,60.43
2018-06-17T10:47:25.138Z,54.17
2018-06-17T10:49:52.200Z,54.16
2018-06-17T10:52:19.296Z,55.14
2018-06-17T10:54:46.378Z,54.65
2018-06-17T10:57:14.693Z,55.05
2018-06-17T10:59:41.714Z,54.03
2018-06-17T11:02:08.817Z,54.10
2018-06-17T11:04:35.835Z,53.69
2018-06-17T11:07:02.858Z,54.20
2018-06-17T11:09:29.894Z,54.95
2018-06-17T11:11:56.896Z,54.38
2018-06-17T11:14:23.917Z,54.83
2018-06-17T11:16:51.275Z,55.79
2018-06-17T11:19:18.370Z,55.47
2018-06-17T11:21:45.375Z,54.90
2018-06-17T11:24:12.398Z,55.35
2018-06-17T11:26:39.443Z,54.26
2018-06-17T11:29:06.433Z,54.39
2018-06-17T11:31:33.769Z,53.81
2018-06-17T11:34:00.861Z,53.53
2018-06-17T11:36:27.896Z,54.91
2018-06-17T11:38:54.974Z,53.76
2018-06-17T11:41:22.270Z,53.98
2018-06-17T11:43:49.309Z,54.94
2018-06-17T11:46:18.640Z,53.62
2018-06-17T11:48:45.735Z,53.51
2018-06-17T11:51:12.728Z,54.48
2018-06-17T11:53:39.796Z,54.06
2018-06-17T11:56:06.800Z,53.78
2018-06-17T11:58:33.805Z,52.88
2018-06-17T12:01:00.925Z,53.72
2018-06-17T12:03:27.926Z,53.87
2018-06-17T12:05:55.114Z,54.42
2018-06-17T12:08:22.137Z,53.69
2018-06-17T12:10:49.157Z,53.19
2018-06-17T12:13:16.166Z,53.18
2018-06-17T12:15:43.433Z,53.07
2018-06-17T12:18:10.549Z,53.28
2018-06-17T12:20:37.961Z,53.16
2018-06-17T12:23:05.101Z,53.50
2018-06-17T12:25:32.130Z,50.84
2018-06-17T12:27:59.252Z,51.80
2018-06-17T12:30:26.262Z,50.25
2018-06-17T12:32:53.266Z,51.16
2018-06-17T12:35:20.296Z,52.67
2018-06-17T12:37:47.296Z,52.81
2018-06-17T12:40:14.356Z,51.80
2018-06-17T12:42:41.351Z,51.72
2018-06-17T12:45:08.394Z,51.86
2018-06-17T12:47:35.393Z,52.32
2018-06-17T12:50:02.452Z,52.52
2018-06-17T12:52:29.473Z,52.11
2018-06-17T12:54:56.669Z,53.90
2018-06-17T12:57:24.520Z,53.18
2018-06-17T12:59:51.537Z,54.73
2018-06-17T13:02:18.561Z,54.67
2018-06-17T13:04:45.659Z,55.15
2018-06-17T13:07:12.695Z,55.75
2018-06-17T13:09:39.765Z,55.53
2018-06-17T13:12:06.771Z,56.46
2018-06-17T13:14:33.778Z,56.58
2018-06-17T13:17:00.849Z,57.67
2018-06-17T13:19:27.937Z,57.74
2018-06-17T13:21:54.986Z,57.68
2018-06-17T13:24:22.018Z,59.94
2018-06-17T13:26:49.078Z,59.78
2018-06-17T13:29:16.254Z,58.67
2018-06-17T13:31:43.263Z,57.56
2018-06-17T13:34:10.265Z,55.43
2018-06-17T13:36:37.371Z,54.79
2018-06-17T13:39:06.442Z,56.43
2018-06-17T13:41:33.546Z,59.29
2018-06-17T13:44:00.558Z,63.06
2018-06-17T13:46:27.577Z,64.16
2018-06-17T13:48:54.592Z,64.41
2018-06-17T13:51:21.618Z,65.21
2018-06-17T13:53:48.640Z,63.92
2018-06-17T13:56:15.648Z,65.98
2018-06-17T13:58:42.744Z,66.87
2018-06-17T14:01:09.763Z,67.34
2018-06-17T14:03:36.772Z,67.11
2018-06-17T14:06:03.894Z,66.80
2018-06-17T14:08:30.928Z,69.74
2018-06-17T14:10:57.953Z,69.77
2018-06-17T14:13:24.976Z,69.13
2018-06-17T14:15:52.272Z,69.74
2018-06-17T14:18:19.314Z,69.07
2018-06-17T14:20:46.393Z,68.55
2018-06-17T14:23:13.453Z,70.16
2018-06-17T14:25:40.563Z,71.99
2018-06-17T14:28:07.604Z,71.64
2018-06-17T14:30:34.662Z,71.94
2018-06-17T14:33:01.702Z,71.23
2018-06-17T14:35:28.790Z,71.68
2018-06-17T14:40:34.246Z,70.92
2018-06-17T14:43:07.025Z,70.84
2018-06-17T14:45:39.649Z,68.83
2018-06-17T14:48:12.585Z,67.65
2018-06-17T14:50:45.132Z,65.77
2018-06-17T14:53:12.482Z,67.36
2018-06-17T14:55:39.490Z,65.69
2018-06-17T14:58:06.593Z,67.91
2018-06-17T15:00:33.637Z,66.58
2018-06-17T15:03:00.686Z,66.68
2018-06-17T15:05:27.718Z,67.18
2018-06-17T15:07:54.839Z,66.72
2018-06-17T15:10:21.884Z,67.29
2018-06-17T15:12:48.976Z,66.50
2018-06-17T15:15:15.945Z,67.00
2018-06-17T15:17:43.041Z,66.41
2018-06-17T15:20:10.133Z,67.97
2018-06-17T15:22:37.199Z,67.33
2018-06-17T15:25:04.263Z,66.49
2018-06-17T15:27:31.267Z,67.32
2018-06-17T15:29:58.290Z,65.67
2018-06-17T15:32:31.077Z,65.60
2018-06-17T15:35:04.021Z,66.62
2018-06-17T15:37:36.986Z,64.74
2018-06-17T15:40:04.081Z,64.48
2018-06-17T15:42:31.094Z,61.15
2018-06-17T15:44:58.134Z,60.07
2018-06-17T15:47:25.166Z,58.89
2018-06-17T15:49:52.193Z,58.65
2018-06-17T15:52:19.441Z,59.71
2018-06-17T15:54:46.462Z,59.97
2018-06-17T15:57:13.566Z,59.87
2018-06-17T15:59:40.528Z,60.66
2018-06-17T16:02:07.617Z,61.13
2018-06-17T16:04:34.623Z,59.84
2018-06-17T16:07:01.677Z,59.84
2018-06-17T16:09:28.792Z,62.43
2018-06-17T16:12:01.611Z,64.22
2018-06-17T16:14:34.254Z,64.28
2018-06-17T16:17:06.966Z,62.61
2018-06-17T16:19:39.873Z,63.46
2018-06-17T16:22:06.908Z,62.22
2018-06-17T16:24:33.937Z,62.50
2018-06-17T16:27:00.974Z,63.40
2018-06-17T16:29:27.996Z,62.88
2018-06-17T16:31:55.001Z,62.08
2018-06-17T16:34:22.282Z,61.80
2018-06-17T16:36:49.367Z,61.87
2018-06-17T16:39:16.394Z,61.96
2018-06-17T16:41:43.408Z,62.35
2018-06-17T16:44:11.082Z,61.93
2018-06-17T16:46:38.844Z,62.94
2018-06-17T16:49:06.105Z,63.07
2018-06-17T16:51:38.753Z,62.41
2018-06-17T16:54:11.454Z,61.51
2018-06-17T16:56:44.209Z,62.13
2018-06-17T16:59:16.924Z,61.68
2018-06-17T17:01:44.024Z,61.34
2018-06-17T17:04:11.063Z,62.68
2018-06-17T17:06:38.086Z,63.46
2018-06-17T17:09:07.526Z,62.00
2018-06-17T17:11:34.561Z,62.27
2018-06-17T17:14:01.590Z,61.93
2018-06-17T17:16:28.711Z,61.71
2018-06-17T17:18:55.999Z,63.46
2018-06-17T17:21:23.011Z,62.54
2018-06-17T17:23:50.005Z,62.65
2018-06-17T17:26:17.134Z,63.97
2018-06-17T17:28:44.148Z,64.06
2018-06-17T17:31:11.246Z,62.67
2018-06-17T17:33:43.951Z,63.92
2018-06-17T17:36:16.738Z,63.71
2018-06-17T17:38:49.537Z,64.09
2018-06-17T17:41:16.534Z,63.65
2018-06-17T17:43:43.530Z,62.68
2018-06-17T17:46:16.148Z,65.74
2018-06-17T17:48:43.155Z,64.27
2018-06-17T17:51:10.148Z,63.89
2018-06-17T17:53:37.223Z,64.26
2018-06-17T17:56:04.268Z,64.13
2018-06-17T17:58:31.458Z,63.50
2018-06-17T18:00:58.513Z,63.02
2018-06-17T18:03:25.522Z,62.93
2018-06-17T18:05:52.595Z,62.70
2018-06-17T18:08:19.678Z,62.29
2018-06-17T18:10:46.794Z,62.65
2018-06-17T18:13:13.843Z,62.84
2018-06-17T18:15:40.889Z,63.31
2018-06-17T18:18:07.946Z,63.45
2018-06-17T18:20:35.040Z,64.69
2018-06-17T18:23:02.018Z,64.83
2018-06-17T18:25:34.872Z,63.33
2018-06-17T18:28:07.682Z,64.30
2018-06-17T18:30:40.443Z,63.84
2018-06-17T18:34:16.921Z,64.19
2018-06-17T18:36:44.053Z,64.18
2018-06-17T18:39:11.080Z,64.88
2018-06-17T18:41:38.090Z,64.17
2018-06-17T18:44:05.126Z,64.25
2018-06-17T18:46:32.138Z,64.43
2018-06-17T18:48:59.192Z,64.62
2018-06-17T18:51:26.184Z,65.12
2018-06-17T18:53:53.207Z,64.60
2018-06-17T18:56:20.310Z,64.68
2018-06-17T18:58:47.322Z,65.21
2018-06-17T19:01:14.354Z,64.98
2018-06-17T19:03:41.376Z,64.98
2018-06-17T19:06:08.485Z,65.44
2018-06-17T19:08:41.221Z,65.12
2018-06-17T19:11:13.861Z,64.62
2018-06-17T19:13:46.820Z,65.27
2018-06-17T19:16:19.782Z,64.95
2018-06-17T19:18:46.848Z,65.21
2018-06-17T19:21:13.929Z,64.57
2018-06-17T19:23:41.077Z,65.18
2018-06-17T19:26:08.122Z,64.64
2018-06-17T19:28:35.133Z,65.05
2018-06-17T19:31:02.150Z,63.90
2018-06-17T19:33:29.188Z,64.51
2018-06-17T19:35:56.192Z,64.55
2018-06-17T19:38:23.229Z,64.65
2018-06-17T19:40:50.506Z,64.87
2018-06-17T19:43:17.492Z,64.38
2018-06-17T19:45:44.522Z,65.46
2018-06-17T19:48:11.663Z,64.85
2018-06-17T19:50:44.378Z,65.02
2018-06-17T19:53:17.303Z,65.43
2018-06-17T19:56:49.767Z,65.35
2018-06-17T19:59:22.560Z,65.38
2018-06-17T20:01:49.576Z,65.97
2018-06-17T20:04:16.597Z,66.17
2018-06-17T20:06:47.172Z,66.73
2018-06-17T20:09:14.196Z,65.62
2018-06-17T20:11:41.275Z,65.53
2018-06-17T20:14:08.253Z,65.76
2018-06-17T20:16:35.530Z,65.69
2018-06-17T20:19:02.641Z,66.75
2018-06-17T20:21:29.774Z,67.76
2018-06-17T20:23:56.775Z,67.82
2018-06-17T20:26:23.789Z,67.50
2018-06-17T20:28:50.822Z,67.97
2018-06-17T20:31:17.833Z,67.10
2018-06-17T20:33:50.558Z,66.43
2018-06-17T20:36:23.362Z,67.37
2018-06-17T20:38:56.041Z,68.16
2018-06-17T20:41:28.898Z,68.24
2018-06-17T20:43:56.045Z,67.97
2018-06-17T20:46:23.161Z,68.53
2018-06-17T20:48:50.584Z,72.16
2018-06-17T20:51:18.452Z,71.45
2018-06-17T20:53:45.505Z,71.96
2018-06-17T20:56:12.617Z,70.73
2018-06-17T20:58:39.709Z,69.61
2018-06-17T21:01:06.737Z,71.23
2018-06-17T21:03:33.746Z,71.96
2018-06-17T21:06:00.753Z,72.85
2018-06-17T21:08:27.900Z,71.35
2018-06-17T21:10:54.920Z,72.32
2018-06-17T21:13:22.197Z,71.93
2018-06-17T21:15:49.199Z,72.98
2018-06-17T21:18:22.154Z,72.75
2018-06-17T21:20:54.762Z,72.65
2018-06-17T21:23:27.402Z,73.83
2018-06-17T21:26:00.279Z,73.36
2018-06-17T21:28:27.393Z,74.98
2018-06-17T21:30:54.812Z,74.53
2018-06-17T21:33:21.769Z,74.31
2018-06-17T21:35:48.777Z,74.86
2018-06-17T21:38:15.873Z,75.04
2018-06-17T21:40:42.889Z,75.26
2018-06-17T21:43:09.992Z,74.95
2018-06-17T21:45:37.019Z,76.02
2018-06-17T21:48:04.058Z,75.68
2018-06-17T21:50:31.234Z,76.10
2018-06-17T21:52:58.333Z,77.80
2018-06-17T21:55:25.344Z,77.87
2018-06-17T21:57:52.393Z,78.70
2018-06-17T22:00:19.491Z,77.22
2018-06-17T22:02:46.493Z,78.21
2018-06-17T22:05:13.735Z,78.55
2018-06-17T22:07:46.445Z,78.50
2018-06-17T22:10:19.124Z,78.51
2018-06-17T22:12:51.798Z,78.53
2018-06-17T22:15:24.428Z,77.87
2018-06-17T22:17:52.443Z,78.16
2018-06-17T22:20:19.770Z,78.20
2018-06-17T22:22:46.785Z,78.21
2018-06-17T22:25:13.844Z,78.59
2018-06-17T22:27:41.033Z,78.10
2018-06-17T22:30:08.057Z,77.34
2018-06-17T22:32:35.081Z,78.73
2018-06-17T22:35:02.141Z,79.27
2018-06-17T22:37:29.160Z,80.44
2018-06-17T22:39:56.157Z,80.16
2018-06-17T22:42:23.177Z,80.33
2018-06-17T22:44:50.177Z,79.68
2018-06-17T22:47:21.778Z,80.79
2018-06-17T22:49:48.796Z,79.74
2018-06-17T22:52:15.816Z,80.85
2018-06-17T22:54:49.598Z,80.88
2018-06-17T22:57:22.334Z,80.75
2018-06-17T22:59:55.085Z,81.39
2018-06-17T23:02:27.900Z,82.21
2018-06-17T23:05:00.632Z,81.96
2018-06-17T23:07:33.273Z,82.69
2018-06-17T23:10:00.405Z,84.01
2018-06-17T23:12:27.600Z,83.20
2018-06-17T23:14:54.695Z,83.66
2018-06-17T23:17:21.698Z,84.55
2018-06-17T23:19:48.735Z,84.82
2018-06-17T23:22:15.736Z,84.55
2018-06-17T23:24:42.734Z,84.90
2018-06-17T23:27:09.743Z,85.73
2018-06-17T23:29:43.561Z,85.06
2018-06-17T23:32:10.585Z,86.21
2018-06-17T23:34:37.584Z,87.34
2018-06-17T23:37:04.874Z,88.06
2018-06-17T23:39:31.852Z,89.05
2018-06-17T23:41:58.926Z,91.41
2018-06-17T23:44:25.958Z,90.93
2018-06-17T23:46:58.769Z,89.22
2018-06-17T23:49:31.501Z,89.18
2018-06-17T23:52:04.088Z,89.27
2018-06-17T23:54:36.821Z,90.02
2018-06-17T23:57:03.880Z,90.84
2018-06-17T23:59:30.966Z,90.57
